Time;durP1;ratioP1;P1;durP2;ratioP2;P2;SDS_P1;SDS_P2;PMS_P1;PMS_P2;Temp;Humidity;BMP_temperature;BMP_pressure;BME280_temperature;BME280_humidity;BME280_pressure;Samples;Min_cycle;Max_cycle;Signal;HPM_P1;HPM_P2
2021/08/14 00:00:50;;;;;;;10.70;3.65;;;23.60;97.10;;;;;;5011710;28;20098;-79
2021/08/14 00:03:16;;;;;;;9.35;3.33;;;23.50;97.30;;;;;;5011192;28;20033;-79
2021/08/14 00:05:41;;;;;;;10.88;3.33;;;23.50;97.30;;;;;;5011086;28;20025;-78
2021/08/14 00:08:07;;;;;;;7.63;4.13;;;23.50;97.20;;;;;;5011574;28;20385;-77
2021/08/14 00:10:32;;;;;;;10.70;3.83;;;23.40;97.20;;;;;;5011206;28;20075;-78
2021/08/14 00:12:58;;;;;;;9.30;3.22;;;23.40;97.30;;;;;;5011622;28;20054;-78
2021/08/14 00:15:24;;;;;;;9.40;3.83;;;23.40;97.30;;;;;;5011233;28;20030;-78
2021/08/14 00:17:50;;;;;;;8.05;3.38;;;23.40;97.40;;;;;;5011658;28;20030;-78
2021/08/14 00:20:16;;;;;;;10.90;3.85;;;23.30;97.40;;;;;;5010901;28;20029;-76
2021/08/14 00:22:42;;;;;;;8.13;3.70;;;23.30;97.50;;;;;;5011577;28;20371;-75
2021/08/14 00:25:08;;;;;;;7.68;3.47;;;23.30;97.50;;;;;;5011779;28;20032;-76
2021/08/14 00:27:34;;;;;;;12.65;3.80;;;23.30;97.60;;;;;;5012715;28;20105;-76
2021/08/14 00:29:59;;;;;;;10.50;3.83;;;23.20;97.60;;;;;;5015001;28;20034;-76
2021/08/14 00:32:25;;;;;;;12.68;3.97;;;23.20;97.60;;;;;;5014964;28;20049;-78
2021/08/14 00:34:50;;;;;;;10.15;3.50;;;23.20;97.80;;;;;;5014668;28;20033;-76
2021/08/14 00:37:16;;;;;;;9.80;4.07;;;23.20;97.90;;;;;;5014886;28;20073;-76
2021/08/14 00:39:41;;;;;;;10.18;3.78;;;23.20;97.90;;;;;;5014016;28;20080;-78
2021/08/14 00:42:07;;;;;;;11.27;3.90;;;23.20;98.00;;;;;;5015562;28;20030;-76
2021/08/14 00:44:34;;;;;;;12.57;4.07;;;23.10;98.00;;;;;;5014684;28;20080;-78
2021/08/14 00:47:04;;;;;;;10.70;3.50;;;23.10;98.20;;;;;;5014740;28;20037;-76
2021/08/14 00:49:29;;;;;;;10.07;3.50;;;23.10;98.10;;;;;;5014408;28;20022;-76
2021/08/14 00:51:55;;;;;;;9.73;3.75;;;23.20;98.20;;;;;;5014893;28;20018;-78
2021/08/14 00:54:21;;;;;;;10.20;3.60;;;23.10;98.20;;;;;;5013293;28;20022;-78
2021/08/14 00:56:47;;;;;;;10.98;3.72;;;23.20;98.00;;;;;;5014979;28;20030;-75
2021/08/14 00:59:13;;;;;;;9.35;3.38;;;23.10;98.10;;;;;;5014227;28;20095;-77
2021/08/14 01:01:39;;;;;;;9.38;3.30;;;23.10;97.90;;;;;;5015099;28;20367;-78
2021/08/14 01:04:11;;;;;;;9.98;3.60;;;23.10;97.70;;;;;;5014568;28;20030;-78
2021/08/14 01:06:37;;;;;;;10.68;3.80;;;23.10;97.80;;;;;;5014763;28;20064;-76
2021/08/14 01:09:03;;;;;;;8.10;3.53;;;23.10;97.80;;;;;;5014464;28;20037;-76
2021/08/14 01:11:29;;;;;;;11.00;3.47;;;23.10;97.80;;;;;;5014464;28;20572;-77
2021/08/14 01:13:56;;;;;;;9.57;3.60;;;23.10;97.80;;;;;;5014296;28;20018;-79
2021/08/14 01:16:21;;;;;;;8.57;3.70;;;23.10;97.90;;;;;;5014247;28;20113;-78
2021/08/14 01:18:47;;;;;;;8.13;3.70;;;23.00;97.90;;;;;;5014654;28;20100;-79
2021/08/14 01:21:21;;;;;;;7.95;3.58;;;23.00;97.90;;;;;;5014199;28;20434;-76
2021/08/14 01:23:48;;;;;;;9.25;3.63;;;23.00;97.90;;;;;;5014574;28;20108;-77
2021/08/14 01:26:15;;;;;;;9.98;3.75;;;23.00;98.00;;;;;;5012764;28;20042;-79
2021/08/14 01:28:41;;;;;;;8.95;4.03;;;23.00;98.00;;;;;;5014504;28;20030;-74
2021/08/14 01:31:09;;;;;;;8.13;3.50;;;23.00;98.00;;;;;;5014628;28;20113;-78
2021/08/14 01:33:37;;;;;;;8.63;3.28;;;23.00;98.00;;;;;;5014603;28;20487;-75
2021/08/14 01:36:08;;;;;;;8.00;3.78;;;23.00;98.00;;;;;;5013010;28;20018;-79
2021/08/14 01:38:43;;;;;;;11.68;3.75;;;23.00;98.10;;;;;;5012262;28;20449;-76
2021/08/14 01:41:09;;;;;;;10.25;3.83;;;22.90;98.00;;;;;;5014007;28;20026;-78
2021/08/14 01:43:59;;;;;;;9.07;3.80;;;22.90;98.10;;;;;;5013982;28;20113;-78
2021/08/14 01:46:28;;;;;;;10.32;3.97;;;22.90;98.00;;;;;;5013737;28;20503;-80
2021/08/14 01:48:54;;;;;;;9.57;3.42;;;22.90;98.10;;;;;;5014020;28;20053;-80
2021/08/14 01:51:20;;;;;;;12.10;3.97;;;22.90;98.20;;;;;;5013297;28;20030;-80
2021/08/14 01:53:49;;;;;;;10.45;3.85;;;22.90;98.20;;;;;;5013974;28;20022;-80
2021/08/14 01:56:16;;;;;;;11.63;4.13;;;22.80;98.20;;;;;;5013364;28;20022;-81
2021/08/14 01:58:42;;;;;;;9.50;3.70;;;22.80;98.30;;;;;;5014107;28;20033;-80
2021/08/14 02:01:07;;;;;;;10.70;3.72;;;22.80;98.30;;;;;;5014135;28;20026;-80
2021/08/14 02:03:33;;;;;;;12.00;4.20;;;22.80;98.30;;;;;;5013340;28;20387;-81
2021/08/14 02:05:59;;;;;;;10.43;4.05;;;22.80;98.40;;;;;;5012256;28;20045;-76
2021/08/14 02:08:25;;;;;;;11.35;4.10;;;22.80;98.50;;;;;;5012129;28;20022;-76
2021/08/14 02:10:50;;;;;;;9.48;4.10;;;22.80;98.60;;;;;;5013106;28;20029;-77
2021/08/14 02:13:16;;;;;;;11.85;4.40;;;22.80;98.70;;;;;;5012975;28;20030;-77
2021/08/14 02:15:41;;;;;;;8.23;3.28;;;22.80;98.70;;;;;;5013756;28;20018;-77
2021/08/14 02:18:07;;;;;;;8.07;3.28;;;22.80;98.70;;;;;;5013413;28;20493;-77
2021/08/14 02:20:32;;;;;;;9.10;3.58;;;22.90;98.70;;;;;;5013090;28;20026;-77
2021/08/14 02:22:58;;;;;;;9.32;3.58;;;22.90;98.70;;;;;;5013472;28;20170;-77
2021/08/14 02:25:24;;;;;;;9.75;3.95;;;22.90;98.70;;;;;;5012847;28;20030;-76
2021/08/14 02:27:49;;;;;;;8.80;3.72;;;22.90;98.70;;;;;;5013090;28;20076;-78
2021/08/14 02:30:15;;;;;;;8.10;3.55;;;22.90;98.70;;;;;;5012978;28;20033;-77
2021/08/14 02:32:40;;;;;;;7.80;3.60;;;22.90;98.70;;;;;;5013290;28;20480;-77
2021/08/14 02:35:06;;;;;;;9.25;3.35;;;22.90;98.70;;;;;;5012912;28;20022;-78
2021/08/14 02:37:32;;;;;;;7.28;3.72;;;22.90;98.70;;;;;;5012949;28;20022;-76
2021/08/14 02:39:58;;;;;;;7.50;3.40;;;22.90;98.70;;;;;;5012793;28;20462;-77
2021/08/14 02:42:23;;;;;;;7.65;3.30;;;22.90;98.60;;;;;;5011887;28;20038;-76
2021/08/14 02:44:49;;;;;;;6.93;3.33;;;22.90;98.60;;;;;;5013016;28;20099;-77
2021/08/14 02:47:15;;;;;;;8.38;3.63;;;22.90;98.60;;;;;;5012787;28;20057;-76
2021/08/14 02:49:40;;;;;;;7.55;3.58;;;22.90;98.60;;;;;;5012130;28;20028;-77
2021/08/14 02:52:06;;;;;;;8.57;3.22;;;22.90;98.60;;;;;;5012943;28;20367;-77
2021/08/14 02:54:32;;;;;;;6.15;3.03;;;22.90;98.60;;;;;;5012256;28;20022;-78
2021/08/14 02:56:57;;;;;;;7.10;2.95;;;22.90;98.60;;;;;;5012583;28;20030;-77
2021/08/14 02:59:23;;;;;;;6.65;3.25;;;22.90;98.50;;;;;;5012305;28;20032;-77
2021/08/14 03:01:49;;;;;;;6.68;3.10;;;22.90;98.50;;;;;;5012250;28;20026;-77
2021/08/14 03:04:14;;;;;;;8.90;3.30;;;22.90;98.50;;;;;;5012269;28;20026;-77
2021/08/14 03:06:40;;;;;;;7.53;3.28;;;22.90;98.50;;;;;;5012015;28;20041;-75
2021/08/14 03:09:08;;;;;;;5.25;2.95;;;22.90;98.50;;;;;;5012476;28;20057;-76
2021/08/14 03:11:34;;;;;;;7.30;2.92;;;22.90;98.50;;;;;;5011940;28;20034;-77
2021/08/14 03:14:00;;;;;;;5.93;3.17;;;22.90;98.50;;;;;;5012046;28;20057;-76
2021/08/14 03:16:25;;;;;;;7.57;3.20;;;22.90;98.50;;;;;;5012301;28;20114;-76
2021/08/14 03:18:51;;;;;;;6.53;3.47;;;22.90;98.50;;;;;;5012330;28;20029;-76
2021/08/14 03:21:16;;;;;;;7.38;3.15;;;22.90;98.50;;;;;;5012018;28;20034;-77
2021/08/14 03:23:42;;;;;;;6.43;3.00;;;22.90;98.50;;;;;;5012438;28;20481;-77
2021/08/14 03:26:08;;;;;;;6.03;3.05;;;22.90;98.50;;;;;;5012244;28;20034;-77
2021/08/14 03:28:33;;;;;;;7.03;3.17;;;22.90;98.40;;;;;;5011173;28;20114;-76
2021/08/14 03:30:59;;;;;;;5.40;3.00;;;22.90;98.40;;;;;;5012402;28;20036;-75
2021/08/14 03:33:25;;;;;;;5.78;2.90;;;22.90;98.40;;;;;;5010670;28;20392;-76
2021/08/14 03:35:50;;;;;;;6.43;3.17;;;22.90;98.40;;;;;;5011811;28;20029;-77
2021/08/14 03:38:16;;;;;;;5.85;2.70;;;22.90;98.50;;;;;;5011655;28;20018;-77
2021/08/14 03:40:41;;;;;;;4.88;2.58;;;22.90;98.50;;;;;;5012203;28;20413;-76
2021/08/14 03:43:07;;;;;;;6.15;3.13;;;22.80;98.50;;;;;;5010927;28;20057;-78
2021/08/14 03:45:33;;;;;;;5.00;2.80;;;22.90;98.50;;;;;;5011722;28;20034;-77
2021/08/14 03:47:59;;;;;;;6.38;2.85;;;22.90;98.50;;;;;;5012073;28;20381;-75
2021/08/14 03:50:24;;;;;;;6.13;3.33;;;22.80;98.50;;;;;;5011514;28;20032;-77
2021/08/14 03:52:50;;;;;;;5.60;2.78;;;22.90;98.50;;;;;;5011925;28;20069;-76
2021/08/14 03:55:15;;;;;;;5.90;2.97;;;22.90;98.50;;;;;;5011759;28;20022;-75
2021/08/14 03:57:41;;;;;;;5.90;2.83;;;22.90;98.60;;;;;;5011744;28;20433;-76
2021/08/14 04:00:07;;;;;;;6.82;2.95;;;22.80;98.50;;;;;;5012230;28;20026;-77
2021/08/14 04:02:33;;;;;;;5.30;2.63;;;22.80;98.50;;;;;;5011423;28;20030;-76
2021/08/14 04:05:00;;;;;;;6.18;2.53;;;22.90;98.50;;;;;;5011531;28;20022;-75
2021/08/14 04:07:25;;;;;;;9.13;3.05;;;22.80;98.50;;;;;;5011261;28;20477;-75
2021/08/14 04:09:51;;;;;;;5.47;2.90;;;22.80;98.50;;;;;;5011476;28;20037;-78
2021/08/14 04:12:16;;;;;;;5.40;2.72;;;22.80;98.50;;;;;;5011246;28;20071;-76
2021/08/14 04:14:42;;;;;;;5.65;2.55;;;22.80;98.60;;;;;;5011895;28;20037;-75
2021/08/14 04:17:08;;;;;;;5.97;2.75;;;22.80;98.50;;;;;;5011955;28;20041;-77
2021/08/14 04:19:33;;;;;;;8.07;3.17;;;22.80;98.60;;;;;;5011474;28;20033;-76
2021/08/14 04:22:00;;;;;;;5.90;2.60;;;22.80;98.60;;;;;;5011382;28;20038;-75
2021/08/14 04:24:26;;;;;;;5.10;2.47;;;22.80;98.60;;;;;;5011302;28;20032;-76
2021/08/14 04:26:52;;;;;;;5.20;2.53;;;22.80;98.60;;;;;;5011321;28;20069;-77
2021/08/14 04:29:18;;;;;;;8.23;2.88;;;22.80;98.60;;;;;;5009622;28;20053;-75
2021/08/14 04:31:43;;;;;;;5.22;2.90;;;22.80;98.60;;;;;;5011397;28;20450;-75
2021/08/14 04:34:09;;;;;;;5.90;2.63;;;22.80;98.60;;;;;;5011160;28;20433;-77
2021/08/14 04:36:34;;;;;;;5.40;2.60;;;22.80;98.60;;;;;;5010789;28;20038;-75
2021/08/14 04:39:00;;;;;;;4.35;2.78;;;22.80;98.60;;;;;;5011380;28;20022;-76
2021/08/14 04:41:26;;;;;;;5.53;2.70;;;22.80;98.60;;;;;;5010689;28;20478;-76
2021/08/14 04:43:51;;;;;;;4.50;2.47;;;22.80;98.60;;;;;;5011513;28;20367;-76
2021/08/14 04:46:17;;;;;;;5.95;2.78;;;22.80;98.60;;;;;;5011206;28;20030;-75
2021/08/14 04:48:45;;;;;;;6.30;3.05;;;22.80;98.60;;;;;;5011468;28;20021;-74
2021/08/14 04:51:11;;;;;;;4.82;2.65;;;22.80;98.60;;;;;;5011122;28;20029;-75
2021/08/14 04:53:37;;;;;;;4.47;2.42;;;22.80;98.70;;;;;;5011424;28;20034;-74
2021/08/14 04:56:02;;;;;;;5.82;2.78;;;22.80;98.70;;;;;;5011396;28;20031;-76
2021/08/14 04:58:28;;;;;;;5.93;2.90;;;22.80;98.60;;;;;;5011184;28;20022;-73
2021/08/14 05:00:53;;;;;;;5.60;3.38;;;22.80;98.60;;;;;;5009523;28;20488;-75
2021/08/14 05:03:19;;;;;;;5.97;2.92;;;22.80;99.00;;;;;;5011142;28;20048;-77
2021/08/14 05:05:45;;;;;;;7.97;2.78;;;22.80;98.70;;;;;;5010523;28;20026;-76
2021/08/14 05:08:10;;;;;;;6.18;2.88;;;22.80;98.70;;;;;;5010563;28;20038;-75
2021/08/14 05:10:36;;;;;;;5.80;2.72;;;22.80;98.60;;;;;;5011602;28;20484;-77
2021/08/14 05:13:04;;;;;;;5.28;2.85;;;22.80;98.70;;;;;;5011925;28;20061;-78
2021/08/14 05:15:30;;;;;;;4.65;2.35;;;22.80;98.60;;;;;;5014646;28;20395;-78
2021/08/14 05:17:55;;;;;;;5.28;2.90;;;22.80;98.60;;;;;;5014708;28;20022;-78
2021/08/14 05:20:21;;;;;;;5.28;2.70;;;22.80;98.60;;;;;;5013967;28;20393;-77
2021/08/14 05:22:46;;;;;;;5.05;2.58;;;22.80;98.60;;;;;;5014321;28;20462;-78
2021/08/14 05:25:12;;;;;;;6.03;2.80;;;22.80;98.60;;;;;;5014084;28;20038;-78
2021/08/14 05:27:38;;;;;;;6.43;2.70;;;22.80;98.50;;;;;;5014632;28;20034;-79
2021/08/14 05:30:04;;;;;;;5.63;2.58;;;22.80;98.50;;;;;;5014463;28;20029;-78
2021/08/14 05:32:30;;;;;;;4.18;2.40;;;22.80;98.50;;;;;;5012955;28;20034;-78
2021/08/14 05:34:55;;;;;;;5.13;2.45;;;22.80;98.60;;;;;;5013975;28;20488;-77
2021/08/14 05:37:21;;;;;;;5.68;2.78;;;22.80;98.60;;;;;;5014039;28;20101;-77
2021/08/14 05:39:47;;;;;;;4.53;2.45;;;22.80;98.60;;;;;;5014233;28;20080;-76
2021/08/14 05:42:12;;;;;;;6.20;2.88;;;22.80;98.60;;;;;;5014030;28;20029;-77
2021/08/14 05:44:38;;;;;;;5.78;2.58;;;22.80;98.60;;;;;;5014487;28;20053;-77
2021/08/14 05:47:04;;;;;;;5.25;2.40;;;22.80;98.60;;;;;;5012771;28;20037;-77
2021/08/14 05:49:30;;;;;;;4.80;2.63;;;22.80;98.60;;;;;;5013667;28;20026;-77
2021/08/14 05:51:58;;;;;;;4.22;2.28;;;22.90;98.60;;;;;;5014382;28;20034;-77
2021/08/14 05:54:23;;;;;;;5.38;2.83;;;22.90;98.70;;;;;;5013106;28;20470;-78
2021/08/14 05:56:49;;;;;;;3.78;2.40;;;22.90;98.70;;;;;;5013970;28;20044;-78
2021/08/14 05:59:15;;;;;;;4.22;2.15;;;22.90;98.60;;;;;;5012828;28;20038;-77
2021/08/14 06:01:40;;;;;;;5.32;2.67;;;22.90;98.60;;;;;;5012512;28;20036;-76
2021/08/14 06:04:07;;;;;;;5.05;2.15;;;23.00;98.60;;;;;;5013350;28;20168;-77
2021/08/14 06:06:32;;;;;;;4.53;2.20;;;23.00;98.70;;;;;;5013106;28;20034;-77
2021/08/14 06:08:58;;;;;;;5.00;2.50;;;22.90;98.60;;;;;;5013589;28;20080;-78
2021/08/14 06:11:23;;;;;;;5.40;2.70;;;23.00;98.60;;;;;;5013238;28;20057;-77
2021/08/14 06:13:49;;;;;;;4.78;2.50;;;23.00;98.60;;;;;;5013604;28;20100;-77
2021/08/14 06:16:15;;;;;;;5.20;2.88;;;23.10;98.60;;;;;;5013411;28;20030;-77
2021/08/14 06:18:41;;;;;;;5.03;2.83;;;23.10;98.50;;;;;;5013458;28;20014;-78
2021/08/14 06:21:09;;;;;;;5.43;2.95;;;23.20;98.50;;;;;;5013633;28;20038;-77
2021/08/14 06:23:35;;;;;;;4.10;2.42;;;23.20;98.50;;;;;;5013184;28;20018;-77
2021/08/14 06:26:00;;;;;;;4.30;2.53;;;23.20;98.50;;;;;;5013485;28;20042;-77
2021/08/14 06:28:26;;;;;;;5.72;2.78;;;23.20;98.50;;;;;;5012942;28;20038;-78
2021/08/14 06:30:52;;;;;;;5.60;2.75;;;23.20;98.50;;;;;;5013166;28;20022;-77
2021/08/14 06:33:17;;;;;;;5.82;2.75;;;23.20;98.50;;;;;;5012667;28;20026;-77
2021/08/14 06:35:43;;;;;;;3.97;2.17;;;23.30;98.50;;;;;;5012285;28;20110;-78
2021/08/14 06:38:08;;;;;;;4.60;2.33;;;23.30;98.50;;;;;;5012954;28;20038;-69
2021/08/14 06:40:34;;;;;;;6.13;2.90;;;23.30;98.50;;;;;;5011560;28;20068;-81
2021/08/14 06:43:00;;;;;;;5.43;2.72;;;23.30;98.60;;;;;;5011573;28;20029;-80
2021/08/14 06:45:25;;;;;;;5.30;2.65;;;23.40;99.30;;;;;;5012978;28;20457;-77
2021/08/14 06:47:51;;;;;;;6.25;2.78;;;23.40;99.70;;;;;;5011919;28;20079;-70
2021/08/14 06:50:18;;;;;;;9.48;3.17;;;23.40;99.40;;;;;;5012311;28;20025;-72
2021/08/14 06:52:44;;;;;;;11.27;3.45;;;23.40;99.80;;;;;;5012606;28;20075;-72
2021/08/14 06:55:10;;;;;;;8.48;3.42;;;23.50;99.90;;;;;;5011812;28;20105;-72
2021/08/14 06:57:35;;;;;;;7.63;3.20;;;23.50;99.90;;;;;;5012161;28;20078;-68
2021/08/14 07:00:01;;;;;;;10.27;3.92;;;23.60;99.90;;;;;;5012241;28;20482;-72
2021/08/14 07:02:27;;;;;;;8.02;3.40;;;23.60;99.90;;;;;;5011850;28;20026;-71
2021/08/14 07:04:52;;;;;;;9.80;4.35;;;23.60;99.90;;;;;;5012211;28;20034;-72
2021/08/14 07:07:18;;;;;;;10.35;3.72;;;23.60;99.90;;;;;;5010700;28;20069;-76
2021/08/14 07:09:44;;;;;;;9.25;3.63;;;23.70;99.90;;;;;;5011327;28;20439;-76
2021/08/14 07:12:10;;;;;;;8.23;3.90;;;23.70;99.90;;;;;;5009369;28;20054;-76
2021/08/14 07:14:36;;;;;;;9.18;3.97;;;23.70;99.90;;;;;;5011392;28;20041;-76
2021/08/14 07:17:02;;;;;;;8.40;3.50;;;23.70;99.90;;;;;;5010717;28;20478;-76
2021/08/14 07:19:28;;;;;;;9.13;4.00;;;23.80;99.90;;;;;;5011274;28;20028;-76
2021/08/14 07:21:54;;;;;;;9.55;3.95;;;23.80;99.90;;;;;;5010663;28;20104;-76
2021/08/14 07:24:19;;;;;;;8.13;4.43;;;23.80;99.90;;;;;;5010355;28;20104;-76
2021/08/14 07:26:45;;;;;;;8.20;4.03;;;23.80;99.90;;;;;;5010844;28;20044;-76
2021/08/14 07:29:11;;;;;;;13.90;4.25;;;23.80;99.90;;;;;;5010516;28;20030;-76
2021/08/14 07:31:36;;;;;;;8.13;3.78;;;23.80;99.90;;;;;;5010735;28;20515;-76
2021/08/14 07:34:02;;;;;;;8.13;4.30;;;23.80;99.90;;;;;;5010754;28;20085;-77
2021/08/14 07:36:28;;;;;;;8.98;4.40;;;23.90;99.90;;;;;;5010076;28;20024;-77
2021/08/14 07:38:53;;;;;;;9.88;4.35;;;23.90;99.90;;;;;;5011160;28;20389;-76
2021/08/14 07:41:19;;;;;;;9.73;3.92;;;23.90;99.90;;;;;;5011749;28;20084;-76
2021/08/14 07:43:45;;;;;;;9.00;3.85;;;23.90;99.90;;;;;;5011925;28;20026;-76
2021/08/14 07:46:10;;;;;;;9.57;4.20;;;23.90;99.90;;;;;;5011008;28;20378;-75
2021/08/14 07:48:36;;;;;;;9.25;4.18;;;23.90;99.90;;;;;;5012193;28;20358;-76
2021/08/14 07:51:02;;;;;;;9.88;4.32;;;23.90;99.90;;;;;;5011855;28;20026;-75
2021/08/14 07:53:29;;;;;;;9.68;3.97;;;23.80;99.90;;;;;;5011753;28;20026;-76
2021/08/14 07:55:54;;;;;;;11.43;4.30;;;23.80;99.90;;;;;;5011078;28;20410;-76
2021/08/14 07:58:20;;;;;;;11.15;3.97;;;23.90;99.90;;;;;;5011354;28;20026;-75
2021/08/14 08:00:45;;;;;;;7.90;3.60;;;23.80;99.90;;;;;;5009246;28;20161;-78
2021/08/14 08:03:11;;;;;;;8.23;4.07;;;23.90;99.90;;;;;;5010206;28;20021;-73
2021/08/14 08:05:38;;;;;;;10.65;4.00;;;23.80;99.90;;;;;;5010555;28;20034;-70
2021/08/14 08:08:05;;;;;;;10.38;4.00;;;23.90;99.90;;;;;;5007804;28;20053;-73
2021/08/14 08:10:31;;;;;;;8.85;4.10;;;23.80;99.90;;;;;;5010221;28;20036;-76
2021/08/14 08:12:57;;;;;;;10.25;3.72;;;23.80;99.90;;;;;;5010840;28;20026;-73
2021/08/14 08:15:23;;;;;;;10.43;3.95;;;23.80;99.90;;;;;;5010039;28;20029;-75
2021/08/14 08:17:50;;;;;;;10.38;4.22;;;23.80;99.90;;;;;;5010665;28;20381;-69
2021/08/14 08:20:17;;;;;;;8.60;3.88;;;23.80;99.90;;;;;;5011213;28;20093;-69
2021/08/14 08:22:43;;;;;;;9.50;3.83;;;23.90;99.90;;;;;;5010779;28;20034;-72
2021/08/14 08:25:10;;;;;;;9.75;4.20;;;23.90;99.90;;;;;;5010649;28;20030;-70
2021/08/14 08:27:44;;;;;;;8.95;4.07;;;23.80;99.90;;;;;;5011552;28;20030;-72
2021/08/14 08:30:10;;;;;;;;;;;23.80;99.90;;;;;;5012786;28;20445;-68
2021/08/14 08:32:37;;;;;;;11.52;4.20;;;23.90;99.90;;;;;;5011064;28;19916;-71
2021/08/14 08:35:03;;;;;;;8.88;4.13;;;23.90;99.90;;;;;;5011218;28;20061;-71
2021/08/14 08:37:29;;;;;;;9.45;3.78;;;23.90;99.90;;;;;;5008753;28;20477;-72
2021/08/14 08:39:55;;;;;;;10.02;4.38;;;23.90;99.90;;;;;;5011138;28;20084;-72
2021/08/14 08:42:20;;;;;;;11.90;4.30;;;23.90;99.80;;;;;;5009663;28;20034;-72
2021/08/14 08:44:46;;;;;;;10.30;4.55;;;23.90;99.70;;;;;;5010392;28;20573;-70
2021/08/14 08:47:14;;;;;;;8.50;3.95;;;23.90;99.60;;;;;;5010138;28;20042;-72
2021/08/14 08:49:51;;;;;;;8.32;4.10;;;23.90;99.70;;;;;;5014774;28;20133;-69
2021/08/14 08:52:17;;;;;;;9.68;4.32;;;24.00;99.60;;;;;;5014816;28;20489;-72
2021/08/14 08:54:43;;;;;;;11.85;4.13;;;23.90;99.60;;;;;;5015176;28;20096;-72
2021/08/14 08:57:08;;;;;;;9.85;3.97;;;23.90;99.60;;;;;;5015357;28;20496;-72
2021/08/14 08:59:34;;;;;;;10.07;4.15;;;23.90;99.60;;;;;;5014687;28;20069;-70
2021/08/14 09:02:01;;;;;;;9.52;3.97;;;23.90;99.60;;;;;;5014994;28;20473;-71
2021/08/14 09:04:29;;;;;;;10.57;3.92;;;24.00;99.50;;;;;;5014630;28;20040;-71
2021/08/14 09:06:56;;;;;;;11.95;4.40;;;23.90;99.30;;;;;;5014831;28;20042;-72
2021/08/14 09:09:32;;;;;;;10.18;4.30;;;24.00;99.40;;;;;;5014702;28;20026;-73
2021/08/14 09:12:02;;;;;;;12.25;4.38;;;24.00;99.30;;;;;;5014881;28;20034;-72
2021/08/14 09:14:55;;;;;;;10.35;4.25;;;24.00;99.30;;;;;;5014675;28;20026;-72
2021/08/14 09:17:26;;;;;;;11.98;4.35;;;24.00;99.30;;;;;;5008967;28;20080;-72
2021/08/14 09:20:06;;;;;;;9.82;4.65;;;23.90;99.40;;;;;;5013208;28;20037;-74
2021/08/14 09:22:31;;;;;;;10.45;4.50;;;24.00;99.50;;;;;;4994781;28;20478;-68
2021/08/14 09:25:13;;;;;;;11.52;4.55;;;24.00;99.70;;;;;;5007490;28;20041;-68
2021/08/14 09:28:00;;;;;;;10.70;4.43;;;24.00;99.70;;;;;;5008377;28;20084;-68
2021/08/14 09:31:05;;;;;;;7.55;3.88;;;24.00;99.70;;;;;;5011061;28;20481;-73
2021/08/14 09:33:34;;;;;;;11.25;3.92;;;24.10;99.70;;;;;;4988349;28;20030;-69
2021/08/14 09:36:04;;;;;;;10.23;4.68;;;24.10;99.80;;;;;;4986257;28;20034;-71
2021/08/14 09:38:47;;;;;;;8.48;4.22;;;24.10;99.80;;;;;;4998853;28;20053;-71
2021/08/14 09:41:15;;;;;;;9.52;3.85;;;24.10;99.60;;;;;;5004375;28;20026;-70
2021/08/14 09:43:42;;;;;;;9.90;4.35;;;24.10;99.50;;;;;;5001949;28;20029;-77
2021/08/14 09:46:08;;;;;;;8.20;4.03;;;24.10;99.60;;;;;;5007424;28;20121;-73
2021/08/14 09:48:34;;;;;;;9.75;4.68;;;24.20;99.60;;;;;;5008548;28;20367;-68
2021/08/14 09:51:00;;;;;;;10.77;4.43;;;24.20;99.70;;;;;;5003065;28;20030;-71
2021/08/14 09:53:29;;;;;;;9.00;4.57;;;24.20;99.60;;;;;;4995214;28;20465;-73
2021/08/14 09:56:06;;;;;;;7.88;3.90;;;24.20;99.70;;;;;;5013405;28;20033;-71
2021/08/14 09:58:33;;;;;;;6.97;3.85;;;24.20;99.70;;;;;;5013225;28;20025;-73
2021/08/14 10:01:04;;;;;;;9.57;4.28;;;24.30;99.70;;;;;;5013496;28;20037;-69
2021/08/14 10:03:31;;;;;;;11.57;4.70;;;24.30;99.70;;;;;;5012942;28;20037;-77
2021/08/14 10:05:58;;;;;;;10.10;4.30;;;24.30;99.70;;;;;;5013089;28;20044;-77
2021/08/14 10:08:25;;;;;;;8.75;4.03;;;24.30;99.70;;;;;;5013066;28;20056;-79
2021/08/14 10:10:52;;;;;;;10.85;4.30;;;24.30;99.70;;;;;;5013394;28;20052;-77
2021/08/14 10:13:18;;;;;;;7.38;3.75;;;24.40;99.70;;;;;;5012853;28;20028;-73
2021/08/14 10:15:45;;;;;;;8.80;4.00;;;24.40;99.60;;;;;;5013121;28;20030;-73
2021/08/14 10:18:11;;;;;;;7.18;3.90;;;24.40;99.60;;;;;;5009499;28;20473;-72
2021/08/14 10:20:36;;;;;;;8.40;3.65;;;24.40;99.60;;;;;;4998994;28;20040;-79
2021/08/14 10:23:07;;;;;;;9.18;4.25;;;24.50;99.60;;;;;;5011640;28;20540;-78
2021/08/14 10:25:36;;;;;;;7.30;4.25;;;24.50;99.90;;;;;;5011941;28;20025;-80
2021/08/14 10:28:05;;;;;;;8.30;4.10;;;24.50;99.90;;;;;;5012131;28;20026;-81
2021/08/14 10:30:47;;;;;;;9.60;4.32;;;24.50;99.90;;;;;;5011778;28;20073;-80
2021/08/14 10:33:28;;;;;;;8.07;4.10;;;24.50;99.90;;;;;;5010113;28;20440;-80
2021/08/14 10:35:58;;;;;;;10.82;4.30;;;24.60;99.90;;;;;;5001348;28;20038;-80
2021/08/14 10:38:43;;;;;;;7.85;3.75;;;24.60;99.90;;;;;;5012095;28;20084;-79
2021/08/14 10:41:10;;;;;;;6.68;3.95;;;24.60;99.90;;;;;;5012815;28;20092;-80
2021/08/14 10:43:54;;;;;;;6.70;3.70;;;24.60;99.90;;;;;;5012229;28;20036;-80
2021/08/14 10:46:31;;;;;;;;;;;24.60;99.90;;;;;;5012461;28;20038;-81
2021/08/14 10:48:58;;;;;;;7.05;3.97;;;24.60;99.90;;;;;;5012256;28;20380;-80
2021/08/14 10:51:52;;;;;;;7.28;3.78;;;24.60;99.90;;;;;;5000842;28;20088;-80
2021/08/14 10:54:27;;;;;;;;;;;24.60;99.90;;;;;;5012723;28;20056;-81
2021/08/14 10:56:53;;;;;;;;;;;24.60;99.90;;;;;;5011464;28;19906;-81
2021/08/14 10:59:37;;;;;;;7.60;4.10;;;24.70;99.90;;;;;;5011997;28;20260;-81
2021/08/14 11:02:12;;;;;;;9.45;3.97;;;24.60;99.90;;;;;;5012164;28;20072;-80
2021/08/14 11:04:50;;;;;;;9.35;4.00;;;24.70;99.90;;;;;;5012549;28;20022;-80
2021/08/14 11:07:21;;;;;;;7.45;3.60;;;24.70;99.90;;;;;;5011846;28;20091;-80
2021/08/14 11:09:52;;;;;;;6.03;3.47;;;24.70;99.90;;;;;;5012211;28;20026;-80
2021/08/14 11:12:54;;;;;;;6.53;3.25;;;24.70;99.90;;;;;;5011187;28;20108;-80
2021/08/14 11:15:38;;;;;;;8.05;3.75;;;24.70;99.90;;;;;;4989979;28;20437;-80
2021/08/14 11:18:05;;;;;;;7.18;3.83;;;24.80;99.90;;;;;;5010297;28;20478;-81
2021/08/14 11:20:41;;;;;;;5.95;3.55;;;24.80;99.90;;;;;;5012006;28;20022;-82
2021/08/14 11:23:27;;;;;;;8.07;3.83;;;24.80;99.90;;;;;;5011543;28;20088;-77
2021/08/14 11:25:54;;;;;;;6.30;3.65;;;24.80;99.90;;;;;;5011890;28;20061;-79
2021/08/14 11:28:28;;;;;;;6.68;3.65;;;24.80;99.90;;;;;;5011528;28;20081;-80
2021/08/14 11:31:07;;;;;;;7.03;3.90;;;24.90;99.90;;;;;;5011733;28;20030;-82
2021/08/14 11:33:32;;;;;;;8.80;3.85;;;24.90;99.90;;;;;;5006894;28;20030;-79
2021/08/14 11:36:07;;;;;;;7.07;3.60;;;25.00;99.90;;;;;;5011109;28;20034;-77
2021/08/14 11:38:35;;;;;;;5.43;3.13;;;25.10;99.90;;;;;;5002944;28;20045;-76
2021/08/14 11:41:02;;;;;;;5.55;3.45;;;25.10;99.90;;;;;;5011334;28;20029;-78
2021/08/14 11:43:37;;;;;;;7.63;3.70;;;25.10;99.90;;;;;;5010884;28;20028;-77
2021/08/14 11:46:04;;;;;;;7.00;3.85;;;25.10;99.90;;;;;;5009072;28;20037;-77
2021/08/14 11:48:38;;;;;;;6.82;3.40;;;25.10;99.90;;;;;;5004735;28;20026;-73
2021/08/14 11:51:04;;;;;;;;;;;25.10;99.90;;;;;;5010996;28;20489;-73
2021/08/14 11:53:30;;;;;;;6.22;3.50;;;25.20;99.90;;;;;;5011767;28;20028;-73
2021/08/14 11:56:10;;;;;;;8.07;3.63;;;25.20;99.90;;;;;;5011139;28;20026;-73
2021/08/14 11:58:36;;;;;;;14.50;4.03;;;25.20;99.90;;;;;;5012136;28;20014;-72
2021/08/14 12:01:03;;;;;;;8.05;3.72;;;25.20;99.90;;;;;;5011859;28;20497;-72
2021/08/14 12:03:29;;;;;;;7.50;3.47;;;25.30;99.90;;;;;;5011460;28;20064;-74
2021/08/14 12:06:06;;;;;;;8.02;3.65;;;25.30;99.90;;;;;;5011812;28;20061;-73
2021/08/14 12:08:36;;;;;;;7.75;3.13;;;25.30;99.90;;;;;;5011452;28;20030;-75
2021/08/14 12:11:08;;;;;;;8.90;3.53;;;25.30;99.90;;;;;;5011751;28;20104;-71
2021/08/14 12:13:35;;;;;;;6.50;3.38;;;25.30;99.90;;;;;;5010797;28;20092;-72
2021/08/14 12:16:10;;;;;;;7.35;3.20;;;25.30;99.90;;;;;;5010456;28;20096;-72
2021/08/14 12:18:36;;;;;;;7.18;3.45;;;25.30;99.90;;;;;;5008076;28;20018;-72
2021/08/14 12:21:03;;;;;;;6.45;3.35;;;25.30;99.90;;;;;;5010306;28;20032;-71
2021/08/14 12:23:34;;;;;;;8.27;3.25;;;25.30;99.90;;;;;;5013322;28;20426;-72
2021/08/14 12:26:05;;;;;;;9.57;3.80;;;25.30;99.90;;;;;;5012352;28;20030;-71
2021/08/14 12:28:37;;;;;;;8.02;3.40;;;25.30;99.90;;;;;;5014834;28;20025;-71
2021/08/14 12:31:15;;;;;;;5.10;3.05;;;25.30;99.90;;;;;;5015750;28;20108;-71
2021/08/14 12:33:47;;;;;;;6.78;3.20;;;25.30;99.90;;;;;;5015180;28;20025;-71
2021/08/14 12:36:13;;;;;;;6.15;2.85;;;25.30;99.90;;;;;;5013719;28;20022;-71
2021/08/14 12:38:48;;;;;;;6.47;3.28;;;25.30;99.90;;;;;;5013919;28;20053;-73
2021/08/14 12:41:15;;;;;;;6.45;3.17;;;25.30;99.90;;;;;;5013670;28;20432;-72
2021/08/14 12:43:43;;;;;;;4.95;2.85;;;25.30;99.90;;;;;;5014576;28;20477;-71
2021/08/14 12:46:19;;;;;;;4.75;2.70;;;25.30;99.90;;;;;;5019241;28;20037;-71
2021/08/14 12:49:18;;;;;;;11.90;3.10;;;25.30;99.90;;;;;;5014853;28;20057;-71